createdAt,value
2022-11-03T00:01:44.110Z,5.85
2022-11-03T00:04:13.109Z,4.88
2022-11-03T00:06:41.654Z,4.30
2022-11-03T00:09:11.218Z,4.57
2022-11-03T00:11:40.078Z,4.45
2022-11-03T00:14:07.443Z,3.90
2022-11-03T00:16:34.047Z,3.92
2022-11-03T00:19:00.818Z,4.10
2022-11-03T00:21:28.153Z,3.95
2022-11-03T00:23:54.948Z,5.22
2022-11-03T00:26:26.507Z,4.18
2022-11-03T00:28:54.983Z,4.43
2022-11-03T00:31:33.065Z,4.28
2022-11-03T00:34:00.844Z,4.10
2022-11-03T00:36:32.652Z,4.50
2022-11-03T00:38:59.363Z,4.75
2022-11-03T00:41:26.767Z,5.05
2022-11-03T00:43:54.226Z,4.80
2022-11-03T00:46:22.595Z,4.85
2022-11-03T00:48:50.151Z,4.95
2022-11-03T00:51:29.910Z,4.95
2022-11-03T00:53:58.964Z,4.80
2022-11-03T00:56:32.346Z,5.50
2022-11-03T00:59:00.709Z,5.38
2022-11-03T01:01:31.333Z,4.75
2022-11-03T01:04:18.107Z,5.82
2022-11-03T01:06:50.252Z,5.90
2022-11-03T01:09:18.714Z,5.95
2022-11-03T01:12:05.246Z,6.28
2022-11-03T01:14:44.459Z,6.28
2022-11-03T01:17:16.698Z,5.63
2022-11-03T01:19:43.373Z,5.63
2022-11-03T01:22:11.294Z,4.72
2022-11-03T01:24:39.915Z,5.28
2022-11-03T01:27:06.597Z,5.15
2022-11-03T01:29:33.276Z,4.43
2022-11-03T01:32:00.092Z,4.40
2022-11-03T01:34:26.712Z,5.13
2022-11-03T01:36:53.304Z,4.82
2022-11-03T01:39:20.258Z,5.00
2022-11-03T01:41:49.364Z,4.47
2022-11-03T01:44:15.889Z,4.38
2022-11-03T01:46:48.894Z,4.63
2022-11-03T01:49:22.976Z,4.93
2022-11-03T01:51:57.334Z,4.57
2022-11-03T01:54:25.933Z,4.88
2022-11-03T01:56:53.138Z,4.78
2022-11-03T01:59:22.555Z,4.93
2022-11-03T02:01:49.394Z,5.07
2022-11-03T02:04:31.730Z,4.30
2022-11-03T02:07:15.159Z,4.70
2022-11-03T02:09:41.732Z,3.90
2022-11-03T02:12:09.308Z,4.03
2022-11-03T02:14:41.144Z,4.97
2022-11-03T02:17:12.255Z,3.97
2022-11-03T02:19:49.506Z,4.20
2022-11-03T02:22:35.290Z,4.15
2022-11-03T02:25:04.888Z,4.95
2022-11-03T02:27:31.608Z,4.28
2022-11-03T02:29:58.977Z,4.68
2022-11-03T02:32:32.663Z,3.63
2022-11-03T02:35:20.226Z,3.75
2022-11-03T02:37:50.388Z,4.57
2022-11-03T02:40:22.230Z,4.18
2022-11-03T02:42:52.423Z,5.18
2022-11-03T02:45:21.330Z,4.93
2022-11-03T02:47:50.684Z,4.70
2022-11-03T02:50:19.952Z,5.15
2022-11-03T02:52:47.803Z,4.85
2022-11-03T02:55:35.622Z,4.72
2022-11-03T02:58:08.112Z,4.47
2022-11-03T03:00:52.003Z,5.30
2022-11-03T03:03:26.044Z,4.85
2022-11-03T03:05:57.975Z,4.57
2022-11-03T03:08:26.946Z,5.50
2022-11-03T03:10:54.838Z,4.82
2022-11-03T03:13:23.908Z,4.63
2022-11-03T03:16:04.318Z,4.72
2022-11-03T03:18:45.804Z,5.53
2022-11-03T03:21:23.399Z,5.20
2022-11-03T03:24:02.476Z,4.95
2022-11-03T03:26:41.390Z,5.22
2022-11-03T03:29:24.993Z,4.57
2022-11-03T03:31:57.207Z,4.90
2022-11-03T03:34:35.621Z,3.97
2022-11-03T03:37:05.447Z,5.43
2022-11-03T03:39:36.091Z,5.53
2022-11-03T03:42:03.773Z,5.15
2022-11-03T03:44:32.075Z,5.30
2022-11-03T03:47:06.856Z,5.05
2022-11-03T03:49:33.417Z,5.28
2022-11-03T03:52:00.656Z,4.40
2022-11-03T03:54:28.447Z,4.50
2022-11-03T03:57:05.924Z,4.93
2022-11-03T03:59:32.617Z,5.05
2022-11-03T04:01:59.558Z,5.07
2022-11-03T04:04:26.307Z,5.05
2022-11-03T04:07:15.658Z,5.10
2022-11-03T04:09:42.309Z,5.60
2022-11-03T04:12:28.044Z,4.65
2022-11-03T04:15:13.496Z,4.80
2022-11-03T04:18:02.536Z,5.15
2022-11-03T04:20:48.316Z,4.70
2022-11-03T04:23:15.052Z,4.63
2022-11-03T04:25:47.826Z,4.38
2022-11-03T04:28:15.810Z,4.95
2022-11-03T04:30:42.461Z,4.95
2022-11-03T04:33:17.711Z,4.53
2022-11-03T04:35:44.933Z,4.65
2022-11-03T04:38:14.230Z,5.25
2022-11-03T04:40:47.112Z,4.75
2022-11-03T04:43:20.172Z,4.72
2022-11-03T04:45:48.023Z,4.47
2022-11-03T04:48:25.493Z,4.95
2022-11-03T04:50:57.780Z,5.07
2022-11-03T04:53:28.189Z,4.40
2022-11-03T04:55:55.035Z,5.15
2022-11-03T04:58:32.789Z,4.82
2022-11-03T05:01:01.292Z,4.47
2022-11-03T05:03:32.077Z,5.00
2022-11-03T05:06:01.735Z,4.60
2022-11-03T05:08:28.357Z,5.35
2022-11-03T05:10:55.238Z,5.85
2022-11-03T05:13:24.831Z,5.35
2022-11-03T05:16:01.972Z,5.45
2022-11-03T05:18:35.112Z,6.13
2022-11-03T05:21:14.753Z,6.78
2022-11-03T05:23:50.459Z,6.15
2022-11-03T05:26:26.646Z,7.10
2022-11-03T05:28:59.831Z,5.72
2022-11-03T05:31:29.333Z,5.72
2022-11-03T05:33:59.584Z,6.32
2022-11-03T05:36:29.946Z,5.55
2022-11-03T05:39:05.972Z,6.13
2022-11-03T05:41:32.944Z,5.15
2022-11-03T05:44:02.813Z,6.05
2022-11-03T05:46:31.944Z,6.68
2022-11-03T05:49:01.646Z,6.20
2022-11-03T05:51:39.161Z,6.68
2022-11-03T05:54:15.606Z,5.78
2022-11-03T05:56:45.256Z,5.78
2022-11-03T05:59:13.659Z,6.13
2022-11-03T06:01:41.467Z,6.50
2022-11-03T06:04:20.419Z,6.07
2022-11-03T06:06:58.775Z,5.95
2022-11-03T06:09:26.750Z,6.13
2022-11-03T06:11:56.980Z,6.95
2022-11-03T06:14:30.077Z,6.18
2022-11-03T06:16:57.906Z,4.75
2022-11-03T06:19:44.615Z,6.82
2022-11-03T06:22:17.049Z,7.50
2022-11-03T06:24:45.358Z,6.38
2022-11-03T06:27:19.321Z,6.50
2022-11-03T06:29:53.340Z,8.63
2022-11-03T06:32:20.076Z,8.07
2022-11-03T06:34:50.446Z,8.75
2022-11-03T06:37:24.671Z,7.80
2022-11-03T06:39:53.716Z,8.48
2022-11-03T06:42:23.787Z,8.25
2022-11-03T06:44:51.641Z,9.07
2022-11-03T06:47:27.550Z,9.32
2022-11-03T06:49:56.684Z,9.45
2022-11-03T06:52:29.196Z,9.85
2022-11-03T06:55:12.166Z,10.63
2022-11-03T06:57:44.139Z,10.35
2022-11-03T07:00:34.098Z,10.18
2022-11-03T07:03:18.117Z,10.63
2022-11-03T07:05:45.312Z,10.65
2022-11-03T07:08:22.561Z,10.88
2022-11-03T07:10:50.621Z,11.10
2022-11-03T07:13:20.412Z,12.48
2022-11-03T07:15:47.451Z,10.88
2022-11-03T07:18:24.507Z,11.45
2022-11-03T07:20:52.472Z,10.27
2022-11-03T07:23:22.029Z,10.48
2022-11-03T07:25:53.264Z,10.00
2022-11-03T07:28:20.475Z,10.05
2022-11-03T07:30:47.493Z,8.63
2022-11-03T07:33:20.923Z,8.50
2022-11-03T07:38:35.766Z,10.15
2022-11-03T07:41:02.794Z,10.18
2022-11-03T07:43:34.817Z,9.77
2022-11-03T07:46:03.274Z,10.07
2022-11-03T07:48:36.047Z,9.05
2022-11-03T07:51:23.246Z,10.02
2022-11-03T07:53:51.330Z,8.57
2022-11-03T07:56:18.394Z,9.38
2022-11-03T07:58:45.458Z,9.45
2022-11-03T08:01:27.899Z,9.40
2022-11-03T08:03:56.910Z,9.23
2022-11-03T08:06:23.959Z,9.13
2022-11-03T08:08:50.969Z,9.02
2022-11-03T08:11:18.056Z,8.40
2022-11-03T08:13:45.062Z,7.88
2022-11-03T08:16:12.094Z,8.73
2022-11-03T08:18:39.077Z,7.10
2022-11-03T08:21:06.179Z,7.90
2022-11-03T08:23:33.696Z,7.97
2022-11-03T08:26:01.064Z,6.38
2022-11-03T08:28:28.377Z,6.75
2022-11-03T08:30:55.417Z,6.95
2022-11-03T08:33:22.467Z,6.97
2022-11-03T08:35:49.509Z,7.18
2022-11-03T08:38:16.619Z,6.20
2022-11-03T08:40:43.634Z,5.90
2022-11-03T08:43:10.616Z,6.57
2022-11-03T08:45:37.685Z,7.05
2022-11-03T08:48:05.228Z,6.30
2022-11-03T08:50:32.563Z,6.40
2022-11-03T08:52:59.619Z,6.22
2022-11-03T08:55:26.704Z,6.63
2022-11-03T08:57:53.787Z,6.40
2022-11-03T09:00:20.817Z,6.82
2022-11-03T09:02:47.844Z,6.22
2022-11-03T09:05:15.208Z,5.78
2022-11-03T09:10:33.280Z,6.07
2022-11-03T09:13:01.476Z,4.90
2022-11-03T09:15:29.199Z,5.50
2022-11-03T09:17:56.243Z,5.63
2022-11-03T09:20:23.276Z,5.05
2022-11-03T09:22:50.345Z,5.72
2022-11-03T09:25:17.350Z,5.20
2022-11-03T09:27:44.397Z,5.38
2022-11-03T09:30:13.663Z,5.07
2022-11-03T09:32:41.709Z,5.20
2022-11-03T09:35:09.824Z,5.10
2022-11-03T09:37:37.034Z,5.57
2022-11-03T09:40:04.549Z,4.55
2022-11-03T09:42:34.155Z,4.68
2022-11-03T09:45:01.588Z,4.80
2022-11-03T09:47:29.754Z,5.03
2022-11-03T09:49:57.856Z,4.28
2022-11-03T09:52:25.269Z,4.78
2022-11-03T09:54:55.319Z,4.35
2022-11-03T09:57:22.438Z,4.15
2022-11-03T09:59:50.512Z,3.60
2022-11-03T10:02:28.140Z,5.00
2022-11-03T10:04:56.883Z,4.50
2022-11-03T10:07:24.781Z,4.28
2022-11-03T10:09:52.578Z,4.55
2022-11-03T10:12:20.245Z,4.25
2022-11-03T10:14:47.915Z,4.45
2022-11-03T10:17:19.378Z,3.97
2022-11-03T10:19:49.144Z,4.63
2022-11-03T10:22:16.421Z,4.13
2022-11-03T10:24:43.434Z,3.83
2022-11-03T10:27:25.267Z,6.75
2022-11-03T10:30:08.835Z,9.55
2022-11-03T10:32:36.145Z,9.05
2022-11-03T10:35:04.120Z,8.55
2022-11-03T10:37:31.179Z,9.50
2022-11-03T10:39:58.688Z,10.65
2022-11-03T10:42:28.136Z,10.50
2022-11-03T10:45:10.960Z,9.93
2022-11-03T10:47:38.043Z,10.85
2022-11-03T10:50:25.117Z,10.02
2022-11-03T10:52:52.739Z,10.55
2022-11-03T10:55:24.004Z,9.85
2022-11-03T10:57:53.373Z,11.02
2022-11-03T11:00:20.567Z,10.35
2022-11-03T11:02:48.201Z,9.07
2022-11-03T11:05:22.919Z,9.88
2022-11-03T11:07:51.323Z,8.70
2022-11-03T11:10:22.927Z,9.52
2022-11-03T11:13:09.617Z,9.52
2022-11-03T11:15:44.542Z,10.10
2022-11-03T11:18:12.087Z,9.27
2022-11-03T11:20:42.369Z,8.93
2022-11-03T11:23:27.474Z,8.93
2022-11-03T11:26:09.624Z,9.55
2022-11-03T11:28:40.322Z,9.23
2022-11-03T11:31:26.187Z,8.75
2022-11-03T11:34:18.396Z,9.23
2022-11-03T11:36:47.316Z,9.57
2022-11-03T11:39:23.400Z,9.93
2022-11-03T11:42:09.216Z,9.25
2022-11-03T11:44:54.836Z,9.23
2022-11-03T11:47:24.662Z,9.32
2022-11-03T11:50:10.179Z,8.77
2022-11-03T11:52:56.841Z,8.98
2022-11-03T11:55:42.433Z,8.80
2022-11-03T11:58:15.119Z,8.73
2022-11-03T12:00:51.266Z,7.93
2022-11-03T12:03:20.363Z,8.68
2022-11-03T12:05:52.910Z,8.45
2022-11-03T12:08:21.262Z,8.45
2022-11-03T12:11:14.749Z,7.93
2022-11-03T12:13:47.297Z,8.85
2022-11-03T12:16:32.871Z,7.97
2022-11-03T12:19:19.131Z,8.32
2022-11-03T12:21:47.477Z,8.10
2022-11-03T12:24:32.786Z,7.60
2022-11-03T12:27:00.412Z,8.10
2022-11-03T12:29:27.900Z,7.13
2022-11-03T12:31:54.953Z,8.05
2022-11-03T12:34:22.353Z,7.25
2022-11-03T12:36:54.729Z,7.10
2022-11-03T12:39:23.096Z,6.82
2022-11-03T12:41:50.075Z,7.32
2022-11-03T12:44:17.144Z,7.68
2022-11-03T12:46:44.321Z,6.93
2022-11-03T12:49:11.305Z,7.70
2022-11-03T12:51:38.307Z,7.05
2022-11-03T12:54:05.342Z,6.95
2022-11-03T12:56:32.342Z,6.88
2022-11-03T12:58:59.396Z,6.90
2022-11-03T13:01:27.011Z,7.47
2022-11-03T13:03:54.079Z,6.05
2022-11-03T13:06:21.118Z,7.38
2022-11-03T13:08:53.077Z,6.53
2022-11-03T13:11:39.112Z,7.15
2022-11-03T13:14:06.260Z,6.95
2022-11-03T13:16:33.466Z,7.40
2022-11-03T13:19:00.464Z,6.60
2022-11-03T13:21:27.584Z,6.20
2022-11-03T13:23:56.221Z,5.95
2022-11-03T13:26:23.259Z,6.53
2022-11-03T13:28:50.291Z,6.15
2022-11-03T13:31:17.291Z,6.43
2022-11-03T13:33:44.299Z,6.20
2022-11-03T13:36:11.511Z,7.10
2022-11-03T13:38:38.559Z,6.50
2022-11-03T13:41:08.948Z,6.47
2022-11-03T13:43:36.276Z,7.00
2022-11-03T13:46:04.791Z,7.07
2022-11-03T13:51:19.145Z,7.50
2022-11-03T13:59:28.200Z,6.53
2022-11-03T14:04:44.204Z,7.50
2022-11-03T14:07:11.717Z,6.95
2022-11-03T14:09:38.928Z,6.78
2022-11-03T14:12:25.066Z,7.82
2022-11-03T14:14:52.078Z,6.97
2022-11-03T14:17:19.182Z,7.20
2022-11-03T14:19:50.402Z,6.95
2022-11-03T14:22:20.051Z,8.00
2022-11-03T14:24:47.179Z,7.07
2022-11-03T14:27:15.717Z,6.63
2022-11-03T14:29:43.724Z,7.30
2022-11-03T14:32:11.203Z,7.78
2022-11-03T14:34:38.647Z,6.90
2022-11-03T14:37:06.140Z,8.15
2022-11-03T14:39:33.232Z,7.07
2022-11-03T14:42:06.365Z,7.53
2022-11-03T14:44:34.429Z,7.30
2022-11-03T14:47:02.023Z,8.32
2022-11-03T14:49:29.828Z,7.05
2022-11-03T14:51:57.300Z,6.63
2022-11-03T14:54:24.966Z,6.93
2022-11-03T14:56:52.519Z,6.55
2022-11-03T14:59:19.627Z,7.25
2022-11-03T15:01:47.357Z,6.82
2022-11-03T15:04:14.777Z,7.00
2022-11-03T15:06:42.149Z,8.00
2022-11-03T15:11:41.981Z,7.90
2022-11-03T15:14:09.015Z,8.00
2022-11-03T15:16:39.146Z,8.27
2022-11-03T15:19:06.818Z,8.43
2022-11-03T15:21:33.832Z,7.70
2022-11-03T15:26:48.274Z,8.00
2022-11-03T15:29:15.317Z,8.25
2022-11-03T15:31:47.540Z,7.90
2022-11-03T15:34:15.203Z,8.60
2022-11-03T15:36:42.301Z,9.23
2022-11-03T15:39:09.561Z,9.32
2022-11-03T15:41:36.606Z,8.57
2022-11-03T15:44:03.664Z,8.80
2022-11-03T15:46:30.677Z,8.60
2022-11-03T15:48:57.939Z,9.35
2022-11-03T15:51:25.220Z,9.23
2022-11-03T15:53:56.960Z,8.48
2022-11-03T15:56:25.442Z,6.27
2022-11-03T15:58:52.461Z,9.85
2022-11-03T16:01:19.623Z,9.98
2022-11-03T16:03:46.732Z,10.75
2022-11-03T16:06:13.748Z,11.50
2022-11-03T16:08:40.793Z,10.57
2022-11-03T16:11:09.041Z,9.65
2022-11-03T16:13:36.358Z,11.57
2022-11-03T16:16:03.464Z,11.07
2022-11-03T16:18:30.471Z,11.73
2022-11-03T16:20:57.525Z,12.38
2022-11-03T16:23:24.695Z,11.70
2022-11-03T16:25:51.784Z,11.27
2022-11-03T16:28:18.771Z,12.73
2022-11-03T16:30:51.115Z,12.90
2022-11-03T16:33:21.028Z,12.30
2022-11-03T16:35:48.052Z,12.48
2022-11-03T16:38:15.417Z,13.05
2022-11-03T16:40:42.817Z,12.27
2022-11-03T16:43:10.143Z,13.00
2022-11-03T16:45:38.086Z,13.18
2022-11-03T16:48:06.161Z,13.77
2022-11-03T16:50:33.783Z,14.23
2022-11-03T16:53:00.892Z,15.48
2022-11-03T16:55:28.183Z,13.77
2022-11-03T16:57:55.168Z,13.00
2022-11-03T17:00:23.893Z,15.25
2022-11-03T17:02:50.967Z,16.75
2022-11-03T17:05:19.817Z,15.95
2022-11-03T17:07:52.020Z,14.40
2022-11-03T17:10:20.919Z,14.82
2022-11-03T17:12:47.943Z,14.85
2022-11-03T17:15:15.005Z,14.07
2022-11-03T17:17:42.153Z,13.05
2022-11-03T17:20:10.555Z,14.00
2022-11-03T17:22:37.620Z,14.52
2022-11-03T17:25:05.317Z,14.35
2022-11-03T17:27:32.470Z,14.75
2022-11-03T17:30:05.352Z,14.02
2022-11-03T17:32:35.968Z,14.68
2022-11-03T17:35:03.633Z,13.95
2022-11-03T17:37:30.685Z,15.20
2022-11-03T17:39:57.834Z,13.90
2022-11-03T17:42:26.059Z,12.68
2022-11-03T17:44:55.362Z,14.50
2022-11-03T17:47:22.678Z,12.82
2022-11-03T17:49:50.177Z,13.23
2022-11-03T17:52:17.167Z,13.05
2022-11-03T17:54:44.307Z,12.88
2022-11-03T17:57:16.576Z,12.00
2022-11-03T17:59:44.028Z,12.90
2022-11-03T18:02:18.267Z,12.77
2022-11-03T18:04:45.887Z,13.15
2022-11-03T18:07:25.998Z,12.50
2022-11-03T18:09:53.459Z,12.82
2022-11-03T18:12:43.275Z,13.13
2022-11-03T18:15:18.403Z,12.73
2022-11-03T18:17:46.117Z,12.65
2022-11-03T18:20:14.701Z,12.32
2022-11-03T18:22:41.739Z,12.43
2022-11-03T18:25:19.108Z,11.65
2022-11-03T18:27:46.230Z,13.02
2022-11-03T18:30:13.910Z,13.02
2022-11-03T18:32:41.586Z,12.82
2022-11-03T18:35:14.261Z,12.35
2022-11-03T18:37:44.115Z,10.85
2022-11-03T18:40:11.934Z,12.65
2022-11-03T18:42:38.985Z,12.88
2022-11-03T18:45:12.258Z,11.25
2022-11-03T18:47:39.285Z,13.00
2022-11-03T18:50:07.039Z,11.02
2022-11-03T18:52:37.016Z,11.10
2022-11-03T18:55:04.471Z,11.82
2022-11-03T18:57:31.541Z,12.60
2022-11-03T18:59:58.652Z,11.88
2022-11-03T19:02:26.460Z,11.38
2022-11-03T19:04:54.204Z,11.15
2022-11-03T19:07:25.205Z,11.48
2022-11-03T19:09:52.542Z,12.18
2022-11-03T19:12:19.911Z,12.52
2022-11-03T19:14:47.970Z,11.02
2022-11-03T19:17:22.932Z,11.90
2022-11-03T19:19:51.655Z,10.90
2022-11-03T19:22:19.765Z,11.98
2022-11-03T19:24:47.112Z,10.88
2022-11-03T19:27:18.741Z,10.88
2022-11-03T19:29:46.750Z,11.48
2022-11-03T19:32:17.359Z,11.32
2022-11-03T19:34:44.504Z,12.02
2022-11-03T19:37:11.907Z,11.13
2022-11-03T19:39:40.527Z,11.13
2022-11-03T19:42:36.507Z,11.88
2022-11-03T19:45:07.728Z,11.52
2022-11-03T19:50:35.169Z,9.02
2022-11-03T19:53:04.041Z,9.57
2022-11-03T19:55:35.167Z,11.65
2022-11-03T19:58:18.888Z,9.50
2022-11-03T20:00:46.413Z,9.93
2022-11-03T20:03:13.850Z,9.30
2022-11-03T20:05:44.976Z,10.70
2022-11-03T20:08:18.768Z,11.27
2022-11-03T20:10:47.548Z,11.32
2022-11-03T20:13:15.443Z,10.55
2022-11-03T20:15:42.545Z,11.30
2022-11-03T20:18:12.695Z,9.95
2022-11-03T20:20:40.854Z,10.40
2022-11-03T20:23:11.575Z,10.05
2022-11-03T20:25:38.565Z,10.82
2022-11-03T20:28:14.253Z,11.18
2022-11-03T20:30:41.228Z,10.93
2022-11-03T20:33:11.221Z,10.52
2022-11-03T20:35:38.523Z,10.18
2022-11-03T20:38:05.895Z,10.55
2022-11-03T20:40:33.308Z,10.85
2022-11-03T20:43:01.155Z,10.50
2022-11-03T20:45:31.346Z,11.38
2022-11-03T20:47:58.549Z,10.15
2022-11-03T20:50:25.976Z,10.68
2022-11-03T20:52:54.211Z,10.75
2022-11-03T20:55:25.215Z,10.18
2022-11-03T20:57:52.990Z,10.75
2022-11-03T21:00:24.531Z,10.73
2022-11-03T21:02:52.010Z,9.70
2022-11-03T21:05:20.459Z,11.35
2022-11-03T21:07:47.808Z,11.02
2022-11-03T21:10:20.215Z,9.73
2022-11-03T21:12:47.761Z,12.18
2022-11-03T21:15:34.399Z,12.60
2022-11-03T21:18:20.402Z,11.20
2022-11-03T21:20:47.666Z,10.98
2022-11-03T21:23:27.870Z,12.07
2022-11-03T21:25:55.041Z,11.05
2022-11-03T21:28:22.422Z,11.80
2022-11-03T21:30:50.443Z,12.30
2022-11-03T21:33:17.794Z,11.65
2022-11-03T21:35:45.605Z,12.18
2022-11-03T21:38:13.290Z,11.43
2022-11-03T21:40:48.419Z,11.50
2022-11-03T21:43:36.129Z,11.00
2022-11-03T21:46:12.433Z,11.55
2022-11-03T21:48:59.044Z,10.90
2022-11-03T21:51:26.169Z,10.73
2022-11-03T21:53:53.165Z,10.80
2022-11-03T21:56:20.173Z,11.52
2022-11-03T21:58:47.173Z,10.88
2022-11-03T22:01:14.577Z,9.85
2022-11-03T22:03:41.751Z,10.30
2022-11-03T22:06:09.727Z,9.95
2022-11-03T22:08:37.438Z,10.35
2022-11-03T22:11:23.749Z,10.00
2022-11-03T22:13:54.018Z,10.15
2022-11-03T22:16:36.645Z,9.88
2022-11-03T22:19:36.831Z,10.80
2022-11-03T22:22:23.930Z,9.35
2022-11-03T22:25:09.827Z,9.82
2022-11-03T22:27:36.997Z,10.82
2022-11-03T22:30:22.900Z,10.43
2022-11-03T22:32:53.819Z,8.20
2022-11-03T22:35:40.459Z,9.73
2022-11-03T22:38:09.540Z,9.65
2022-11-03T22:40:56.022Z,9.63
2022-11-03T22:43:42.374Z,9.15
2022-11-03T22:46:10.073Z,10.00
2022-11-03T22:48:37.570Z,9.48
2022-11-03T22:51:06.080Z,10.02
2022-11-03T22:53:52.253Z,11.13
2022-11-03T22:56:19.882Z,9.13
2022-11-03T22:58:47.177Z,10.32
2022-11-03T23:01:17.320Z,10.20
2022-11-03T23:03:45.249Z,10.18
2022-11-03T23:06:14.011Z,10.02
2022-11-03T23:08:41.613Z,9.30
2022-11-03T23:11:08.908Z,10.98
2022-11-03T23:13:36.754Z,9.40
2022-11-03T23:16:10.279Z,9.75
2022-11-03T23:18:56.300Z,8.25
2022-11-03T23:21:23.342Z,7.90
2022-11-03T23:24:19.727Z,6.97
2022-11-03T23:26:46.879Z,5.93
2022-11-03T23:29:14.528Z,4.68
2022-11-03T23:31:42.676Z,4.50
2022-11-03T23:34:10.480Z,4.82
2022-11-03T23:36:37.705Z,4.47
2022-11-03T23:39:04.912Z,4.60
2022-11-03T23:41:31.972Z,4.70
2022-11-03T23:43:59.229Z,4.20
2022-11-03T23:46:46.246Z,4.90
2022-11-03T23:49:13.989Z,4.32
2022-11-03T23:51:42.043Z,4.80
2022-11-03T23:54:10.421Z,5.20
2022-11-03T23:56:57.226Z,4.93
2022-11-03T23:59:24.637Z,5.32
